createdAt,value
2022-12-29T00:00:07.412Z,1.70
2022-12-29T00:02:33.881Z,3.65
2022-12-29T00:05:00.389Z,1.83
2022-12-29T00:07:26.766Z,2.55
2022-12-29T00:09:53.177Z,1.20
2022-12-29T00:12:19.549Z,1.63
2022-12-29T00:15:04.448Z,2.45
2022-12-29T00:17:30.851Z,4.40
2022-12-29T00:20:15.776Z,1.67
2022-12-29T00:23:03.001Z,1.70
2022-12-29T00:25:47.791Z,1.13
2022-12-29T00:28:32.592Z,1.00
2022-12-29T00:31:21.497Z,1.40
2022-12-29T00:34:06.715Z,1.30
2022-12-29T00:36:37.721Z,1.30
2022-12-29T00:39:28.507Z,1.58
2022-12-29T00:42:13.210Z,1.20
2022-12-29T00:44:39.568Z,2.13
2022-12-29T00:47:05.937Z,1.30
2022-12-29T00:49:33.235Z,2.53
2022-12-29T00:52:08.741Z,1.27
2022-12-29T00:54:37.895Z,1.98
2022-12-29T00:57:06.385Z,1.92
2022-12-29T00:59:36.073Z,1.98
2022-12-29T01:02:02.622Z,2.40
2022-12-29T01:04:29.187Z,1.02
2022-12-29T01:06:55.529Z,0.95
2022-12-29T01:09:40.856Z,1.92
2022-12-29T01:12:08.903Z,1.77
2022-12-29T01:14:36.127Z,1.43
2022-12-29T01:17:02.508Z,2.60
2022-12-29T01:19:28.946Z,3.58
2022-12-29T01:21:55.370Z,1.10
2022-12-29T01:24:22.597Z,2.28
2022-12-29T01:26:49.832Z,2.03
2022-12-29T01:29:16.372Z,0.75
2022-12-29T01:31:43.774Z,1.00
2022-12-29T01:34:10.211Z,1.90
2022-12-29T01:36:36.814Z,1.52
2022-12-29T01:39:03.253Z,0.90
2022-12-29T01:41:29.850Z,2.38
2022-12-29T01:44:03.018Z,1.30
2022-12-29T01:46:39.617Z,1.30
2022-12-29T01:49:13.249Z,1.02
2022-12-29T01:51:45.176Z,0.90
2022-12-29T01:54:22.005Z,0.88
2022-12-29T01:56:50.871Z,3.55
2022-12-29T01:59:23.577Z,1.80
2022-12-29T02:01:51.437Z,1.50
2022-12-29T02:04:18.440Z,1.37
2022-12-29T02:06:51.365Z,0.90
2022-12-29T02:09:17.985Z,1.45
2022-12-29T02:11:44.850Z,0.90
2022-12-29T02:14:13.349Z,2.25
2022-12-29T02:16:58.689Z,0.93
2022-12-29T02:19:31.229Z,1.25
2022-12-29T02:22:03.875Z,0.70
2022-12-29T02:24:48.539Z,0.70
2022-12-29T02:27:36.724Z,0.85
2022-12-29T02:30:31.254Z,0.80
2022-12-29T02:33:24.002Z,1.02
2022-12-29T02:35:56.846Z,1.00
2022-12-29T02:38:34.697Z,1.30
2022-12-29T02:41:20.618Z,1.98
2022-12-29T02:44:02.842Z,2.10
2022-12-29T02:46:39.000Z,2.05
2022-12-29T02:49:34.638Z,2.25
2022-12-29T02:52:09.801Z,2.03
2022-12-29T02:54:42.854Z,1.55
2022-12-29T02:57:30.074Z,5.03
2022-12-29T03:00:05.137Z,1.40
2022-12-29T03:02:40.740Z,1.27
2022-12-29T03:05:34.837Z,1.35
2022-12-29T03:08:26.251Z,0.82
2022-12-29T03:11:33.166Z,0.57
2022-12-29T03:14:45.917Z,1.20
2022-12-29T03:17:41.365Z,1.73
2022-12-29T03:20:11.733Z,0.30
2022-12-29T03:22:43.074Z,1.08
2022-12-29T03:25:20.314Z,1.03
2022-12-29T03:27:58.079Z,1.48
2022-12-29T03:30:25.444Z,0.43
2022-12-29T03:32:56.319Z,0.80
2022-12-29T03:35:26.863Z,3.55
2022-12-29T03:38:01.046Z,1.23
2022-12-29T03:40:29.694Z,1.00
2022-12-29T03:42:56.897Z,1.75
2022-12-29T03:45:23.393Z,1.55
2022-12-29T03:47:49.819Z,1.33
2022-12-29T03:50:16.280Z,0.87
2022-12-29T03:52:45.046Z,2.08
2022-12-29T03:55:11.480Z,2.15
2022-12-29T03:57:38.152Z,1.95
2022-12-29T04:00:06.018Z,1.15
2022-12-29T04:02:32.571Z,2.20
2022-12-29T04:04:59.240Z,3.92
2022-12-29T04:07:25.611Z,0.85
2022-12-29T04:09:52.035Z,1.73
2022-12-29T04:12:18.481Z,2.33
2022-12-29T04:14:44.878Z,2.37
2022-12-29T04:17:11.256Z,1.40
2022-12-29T04:19:37.600Z,3.80
2022-12-29T04:22:03.930Z,1.42
2022-12-29T04:24:30.352Z,0.70
2022-12-29T04:26:56.851Z,1.90
2022-12-29T04:29:23.392Z,3.17
2022-12-29T04:31:49.839Z,3.05
2022-12-29T04:34:16.305Z,4.00
2022-12-29T04:36:44.960Z,3.40
2022-12-29T04:39:11.411Z,1.97
2022-12-29T04:41:37.740Z,4.13
2022-12-29T04:44:04.321Z,1.80
2022-12-29T04:46:30.829Z,2.75
2022-12-29T04:48:57.258Z,1.33
2022-12-29T04:51:23.746Z,5.83
2022-12-29T04:53:50.244Z,4.38
2022-12-29T04:56:16.571Z,3.53
2022-12-29T04:58:44.839Z,1.67
2022-12-29T05:01:11.191Z,5.35
2022-12-29T05:03:37.714Z,2.70
2022-12-29T05:06:04.210Z,6.18
2022-12-29T05:08:30.667Z,4.78
2022-12-29T05:10:57.041Z,7.00
2022-12-29T05:13:23.484Z,4.82
2022-12-29T05:15:54.053Z,12.70
2022-12-29T05:18:20.868Z,2.65
2022-12-29T05:20:48.387Z,7.18
2022-12-29T05:23:14.899Z,5.80
2022-12-29T05:25:41.324Z,2.05
2022-12-29T05:28:07.727Z,5.13
2022-12-29T05:30:34.120Z,5.18
2022-12-29T05:33:00.517Z,2.90
2022-12-29T05:35:27.127Z,5.93
2022-12-29T05:37:53.450Z,3.55
2022-12-29T05:40:19.781Z,4.93
2022-12-29T05:42:46.149Z,4.00
2022-12-29T05:45:12.480Z,8.07
2022-12-29T05:47:38.910Z,5.10
2022-12-29T05:50:05.373Z,3.65
2022-12-29T05:52:31.716Z,7.63
2022-12-29T05:54:58.097Z,4.00
2022-12-29T05:57:24.488Z,4.32
2022-12-29T05:59:50.907Z,2.90
2022-12-29T06:02:17.527Z,5.20
2022-12-29T06:04:44.053Z,2.57
2022-12-29T06:07:10.452Z,3.35
2022-12-29T06:09:36.792Z,4.75
2022-12-29T06:12:03.264Z,4.53
2022-12-29T06:14:29.677Z,7.85
2022-12-29T06:16:56.017Z,6.80
2022-12-29T06:19:22.409Z,9.07
2022-12-29T06:21:48.815Z,6.35
2022-12-29T06:24:15.252Z,7.20
2022-12-29T06:26:41.630Z,4.25
2022-12-29T06:29:09.113Z,8.80
2022-12-29T06:31:35.566Z,5.25
2022-12-29T06:34:07.941Z,6.05
2022-12-29T06:36:35.226Z,5.38
2022-12-29T06:39:01.624Z,4.85
2022-12-29T06:41:32.215Z,4.20
2022-12-29T06:43:59.142Z,6.85
2022-12-29T06:46:25.618Z,2.35
2022-12-29T06:48:52.163Z,5.47
2022-12-29T06:51:18.556Z,6.55
2022-12-29T06:53:44.950Z,8.03
2022-12-29T06:56:11.291Z,5.13
2022-12-29T06:58:37.679Z,7.25
2022-12-29T07:01:04.338Z,5.90
2022-12-29T07:03:30.724Z,4.90
2022-12-29T07:05:58.944Z,5.17
2022-12-29T07:08:25.464Z,6.47
2022-12-29T07:10:51.846Z,4.88
2022-12-29T07:13:18.254Z,4.03
2022-12-29T07:15:44.783Z,5.53
2022-12-29T07:18:11.151Z,7.20
2022-12-29T07:20:37.581Z,3.30
2022-12-29T07:23:04.012Z,4.47
2022-12-29T07:25:30.471Z,5.90
2022-12-29T07:27:56.906Z,4.60
2022-12-29T07:30:23.378Z,2.70
2022-12-29T07:32:49.815Z,5.53
2022-12-29T07:35:16.172Z,4.88
2022-12-29T07:37:44.059Z,3.45
2022-12-29T07:40:11.454Z,5.65
2022-12-29T07:42:37.859Z,3.90
2022-12-29T07:45:04.799Z,5.95
2022-12-29T07:47:31.242Z,5.60
2022-12-29T07:49:57.793Z,5.85
2022-12-29T07:52:24.219Z,4.13
2022-12-29T07:54:50.574Z,5.70
2022-12-29T07:57:16.982Z,2.75
2022-12-29T07:59:44.280Z,5.15
2022-12-29T08:02:12.645Z,5.95
2022-12-29T08:04:39.313Z,5.22
2022-12-29T08:07:05.994Z,3.63
2022-12-29T08:09:32.541Z,7.65
2022-12-29T08:11:58.913Z,8.73
2022-12-29T08:14:25.306Z,4.63
2022-12-29T08:16:51.733Z,4.85
2022-12-29T08:19:18.452Z,4.53
2022-12-29T08:21:44.849Z,3.58
2022-12-29T08:24:11.482Z,5.63
2022-12-29T08:26:37.859Z,5.75
2022-12-29T08:29:04.263Z,8.35
2022-12-29T08:31:30.668Z,5.03
2022-12-29T08:33:57.138Z,8.00
2022-12-29T08:36:23.651Z,5.57
2022-12-29T08:38:50.312Z,9.45
2022-12-29T08:41:16.663Z,5.32
2022-12-29T08:43:47.047Z,5.33
2022-12-29T08:46:13.821Z,5.80
2022-12-29T08:48:40.233Z,3.78
2022-12-29T08:51:06.626Z,4.13
2022-12-29T08:53:33.046Z,8.57
2022-12-29T08:56:05.181Z,5.10
2022-12-29T08:58:32.934Z,8.77
2022-12-29T09:01:00.104Z,6.32
2022-12-29T09:03:55.110Z,4.60
2022-12-29T09:06:14.474Z,5.55
2022-12-29T09:08:40.902Z,3.13
2022-12-29T09:11:17.231Z,3.13
2022-12-29T09:13:43.708Z,3.75
2022-12-29T09:16:10.920Z,4.35
2022-12-29T09:18:38.022Z,7.30
2022-12-29T09:21:06.233Z,5.10
2022-12-29T09:23:33.211Z,3.53
2022-12-29T09:25:59.609Z,4.57
2022-12-29T09:28:26.271Z,8.10
2022-12-29T09:30:53.143Z,4.97
2022-12-29T09:33:19.624Z,8.33
2022-12-29T09:35:52.620Z,4.18
2022-12-29T09:38:19.385Z,8.15
2022-12-29T09:40:50.962Z,7.47
2022-12-29T09:43:47.212Z,5.95
2022-12-29T09:46:16.495Z,7.33
2022-12-29T09:48:48.551Z,5.18
2022-12-29T09:51:20.744Z,4.97
2022-12-29T09:53:54.685Z,6.10
2022-12-29T09:56:22.940Z,3.70
2022-12-29T09:59:14.175Z,2.17
2022-12-29T10:01:47.628Z,5.03
2022-12-29T10:04:14.240Z,4.10
2022-12-29T10:07:27.329Z,2.58
2022-12-29T10:10:03.566Z,4.07
2022-12-29T10:12:59.699Z,3.17
2022-12-29T10:15:44.425Z,8.18
2022-12-29T10:18:33.353Z,3.72
2022-12-29T10:21:04.927Z,3.72
2022-12-29T10:23:41.372Z,4.53
2022-12-29T10:26:18.379Z,8.57
2022-12-29T10:28:51.584Z,1.92
2022-12-29T10:31:23.086Z,4.00
2022-12-29T10:33:58.401Z,4.00
2022-12-29T10:36:39.191Z,3.60
2022-12-29T10:39:22.573Z,3.63
2022-12-29T10:41:54.052Z,3.13
2022-12-29T10:44:21.437Z,2.17
2022-12-29T10:47:02.033Z,4.75
2022-12-29T10:49:31.573Z,6.97
2022-12-29T10:52:01.558Z,3.07
2022-12-29T10:54:40.603Z,5.30
2022-12-29T10:57:33.493Z,3.72
2022-12-29T10:59:59.929Z,5.50
2022-12-29T11:02:38.192Z,6.07
2022-12-29T11:05:11.700Z,5.43
2022-12-29T11:07:38.337Z,8.45
2022-12-29T11:10:39.785Z,2.75
2022-12-29T11:13:39.311Z,8.73
2022-12-29T11:16:06.232Z,8.10
2022-12-29T11:18:38.015Z,10.23
2022-12-29T11:21:26.787Z,11.43
2022-12-29T11:23:58.630Z,9.82
2022-12-29T11:26:33.550Z,9.15
2022-12-29T11:29:17.102Z,7.82
2022-12-29T11:31:44.855Z,9.37
2022-12-29T11:34:19.431Z,11.30
2022-12-29T11:36:47.052Z,12.80
2022-12-29T11:39:33.552Z,13.18
2022-12-29T11:42:03.392Z,6.35
2022-12-29T11:44:37.049Z,14.23
2022-12-29T11:47:03.897Z,5.72
2022-12-29T11:49:30.573Z,7.55
2022-12-29T11:51:57.772Z,8.40
2022-12-29T11:54:32.214Z,8.88
2022-12-29T11:56:59.761Z,4.43
2022-12-29T11:59:30.721Z,9.38
2022-12-29T12:01:59.872Z,6.43
2022-12-29T12:04:32.018Z,11.85
2022-12-29T12:07:09.553Z,7.97
2022-12-29T12:09:47.926Z,9.07
2022-12-29T12:12:28.906Z,11.48
2022-12-29T12:15:00.519Z,5.82
2022-12-29T12:17:38.702Z,10.00
2022-12-29T12:20:22.859Z,9.23
2022-12-29T12:23:02.578Z,6.90
2022-12-29T12:25:38.507Z,8.50
2022-12-29T12:28:19.308Z,5.45
2022-12-29T12:30:51.268Z,9.90
2022-12-29T12:33:29.905Z,7.35
2022-12-29T12:36:15.227Z,13.07
2022-12-29T12:39:00.376Z,16.50
2022-12-29T12:41:34.842Z,8.15
2022-12-29T12:44:21.424Z,8.05
2022-12-29T12:46:47.790Z,8.35
2022-12-29T12:49:35.820Z,12.73
2022-12-29T12:52:23.902Z,7.05
2022-12-29T12:55:12.015Z,10.55
2022-12-29T12:57:51.821Z,6.10
2022-12-29T13:00:20.648Z,5.90
2022-12-29T13:03:11.603Z,12.33
2022-12-29T13:06:06.201Z,6.35
2022-12-29T13:08:44.813Z,8.25
2022-12-29T13:11:49.546Z,6.78
2022-12-29T13:14:52.916Z,6.78
2022-12-29T13:17:43.708Z,10.37
2022-12-29T13:20:31.989Z,7.05
2022-12-29T13:23:17.155Z,10.55
2022-12-29T13:25:53.642Z,11.70
2022-12-29T13:28:50.999Z,4.70
2022-12-29T13:31:28.789Z,9.00
2022-12-29T13:34:06.413Z,5.50
2022-12-29T13:36:40.673Z,7.78
2022-12-29T13:39:35.997Z,4.47
2022-12-29T13:42:05.500Z,7.88
2022-12-29T13:44:43.658Z,8.77
2022-12-29T13:47:21.473Z,7.28
2022-12-29T13:49:49.352Z,7.50
2022-12-29T13:52:33.916Z,11.10
2022-12-29T13:55:27.919Z,7.82
2022-12-29T13:58:09.529Z,9.47
2022-12-29T14:00:50.493Z,8.18
2022-12-29T14:03:44.700Z,10.57
2022-12-29T14:06:35.569Z,3.50
2022-12-29T14:09:30.412Z,6.68
2022-12-29T14:12:01.525Z,6.13
2022-12-29T14:14:31.358Z,10.73
2022-12-29T14:17:15.255Z,6.30
2022-12-29T14:19:45.282Z,7.10
2022-12-29T14:22:13.179Z,4.70
2022-12-29T14:24:43.277Z,3.53
2022-12-29T14:27:09.605Z,5.63
2022-12-29T14:29:39.033Z,3.92
2022-12-29T14:32:27.349Z,4.97
2022-12-29T14:34:57.869Z,1.88
2022-12-29T14:37:36.305Z,3.30
2022-12-29T14:40:20.221Z,2.65
2022-12-29T14:42:48.419Z,5.30
2022-12-29T14:45:14.726Z,4.68
2022-12-29T14:47:44.023Z,2.92
2022-12-29T14:50:23.409Z,2.73
2022-12-29T14:53:03.154Z,3.45
2022-12-29T14:55:47.316Z,1.63
2022-12-29T14:58:37.472Z,2.00
2022-12-29T15:01:03.943Z,3.80
2022-12-29T15:03:44.854Z,2.20
2022-12-29T15:06:14.171Z,4.53
2022-12-29T15:08:49.082Z,2.47
2022-12-29T15:11:20.298Z,5.55
2022-12-29T15:13:49.579Z,5.75
2022-12-29T15:16:33.796Z,2.07
2022-12-29T15:19:00.669Z,5.20
2022-12-29T15:21:35.419Z,5.15
2022-12-29T15:24:04.029Z,4.30
2022-12-29T15:26:41.724Z,4.47
2022-12-29T15:29:41.849Z,8.73
2022-12-29T15:32:17.435Z,4.18
2022-12-29T15:34:52.596Z,6.35
2022-12-29T15:37:25.589Z,3.15
2022-12-29T15:39:53.258Z,7.60
2022-12-29T15:42:48.707Z,3.13
2022-12-29T15:45:15.605Z,3.80
2022-12-29T15:47:44.888Z,7.25
2022-12-29T15:50:27.899Z,7.53
2022-12-29T15:52:55.235Z,6.50
2022-12-29T15:55:39.082Z,4.27
2022-12-29T15:58:18.849Z,5.97
2022-12-29T16:00:49.618Z,2.22
2022-12-29T16:03:17.357Z,4.75
2022-12-29T16:05:52.291Z,8.13
2022-12-29T16:08:33.483Z,8.13
2022-12-29T16:11:02.557Z,3.45
2022-12-29T16:13:39.624Z,2.55
2022-12-29T16:16:18.663Z,6.22
2022-12-29T16:18:45.501Z,5.07
2022-12-29T16:21:20.850Z,4.73
2022-12-29T16:23:51.026Z,4.25
2022-12-29T16:26:19.157Z,3.95
2022-12-29T16:28:49.164Z,5.93
2022-12-29T16:31:50.837Z,14.23
2022-12-29T16:34:26.249Z,4.47
2022-12-29T16:37:29.619Z,5.47
2022-12-29T16:39:56.133Z,4.13
2022-12-29T16:42:56.101Z,7.57
2022-12-29T16:45:22.554Z,6.18
2022-12-29T16:48:12.021Z,3.13
2022-12-29T16:50:40.975Z,2.75
2022-12-29T16:53:25.272Z,5.95
2022-12-29T16:55:53.731Z,2.38
2022-12-29T16:58:31.606Z,3.42
2022-12-29T17:01:00.787Z,5.60
2022-12-29T17:03:39.003Z,3.58
2022-12-29T17:06:05.709Z,2.45
2022-12-29T17:08:42.682Z,5.90
2022-12-29T17:11:50.176Z,4.03
2022-12-29T17:14:28.118Z,4.53
2022-12-29T17:16:54.594Z,5.13
2022-12-29T17:19:30.755Z,5.63
2022-12-29T17:21:57.376Z,3.05
2022-12-29T17:24:23.741Z,6.10
2022-12-29T17:26:53.578Z,7.90
2022-12-29T17:29:32.439Z,3.92
2022-12-29T17:32:00.022Z,10.95
2022-12-29T17:34:26.713Z,3.20
2022-12-29T17:36:53.139Z,5.43
2022-12-29T17:39:19.650Z,4.77
2022-12-29T17:41:46.549Z,5.47
2022-12-29T17:44:18.844Z,7.45
2022-12-29T17:46:46.599Z,3.78
2022-12-29T17:49:15.495Z,8.45
2022-12-29T17:51:44.336Z,7.10
2022-12-29T17:54:22.742Z,4.90
2022-12-29T17:56:49.272Z,6.43
2022-12-29T17:59:15.756Z,3.42
2022-12-29T18:01:45.719Z,2.85
2022-12-29T18:04:17.044Z,5.57
2022-12-29T18:06:44.448Z,7.75
2022-12-29T18:09:11.003Z,6.93
2022-12-29T18:11:42.539Z,7.82
2022-12-29T18:14:16.310Z,2.65
2022-12-29T18:16:43.528Z,8.23
2022-12-29T18:19:10.026Z,5.40
2022-12-29T18:21:38.228Z,7.20
2022-12-29T18:24:04.888Z,4.88
2022-12-29T18:26:35.636Z,6.38
2022-12-29T18:29:02.104Z,8.40
2022-12-29T18:31:33.589Z,12.90
2022-12-29T18:34:02.193Z,6.05
2022-12-29T18:36:29.009Z,7.50
2022-12-29T18:38:55.401Z,7.90
2022-12-29T18:41:29.497Z,12.10
2022-12-29T18:43:56.850Z,8.05
2022-12-29T18:46:23.864Z,5.93
2022-12-29T18:48:51.206Z,6.25
2022-12-29T18:51:20.136Z,5.63
2022-12-29T18:53:46.652Z,8.37
2022-12-29T18:56:13.551Z,10.85
2022-12-29T18:58:40.521Z,8.10
2022-12-29T19:01:07.395Z,5.97
2022-12-29T19:03:33.962Z,11.60
2022-12-29T19:06:00.794Z,6.23
2022-12-29T19:08:27.607Z,6.75
2022-12-29T19:10:54.181Z,5.05
2022-12-29T19:13:28.608Z,14.48
2022-12-29T19:15:58.186Z,6.78
2022-12-29T19:18:43.750Z,4.27
2022-12-29T19:21:10.926Z,4.03
2022-12-29T19:23:37.278Z,7.88
2022-12-29T19:26:03.731Z,10.55
2022-12-29T19:28:30.279Z,7.15
2022-12-29T19:31:00.338Z,12.17
2022-12-29T19:33:28.151Z,7.15
2022-12-29T19:35:59.853Z,6.95
2022-12-29T19:38:26.289Z,10.52
2022-12-29T19:40:52.691Z,11.32
2022-12-29T19:43:19.579Z,11.50
2022-12-29T19:45:45.977Z,6.70
2022-12-29T19:48:15.971Z,8.93
2022-12-29T19:50:43.706Z,12.38
2022-12-29T19:53:10.837Z,12.10
2022-12-29T19:55:37.258Z,13.17
2022-12-29T19:58:03.853Z,11.90
2022-12-29T20:00:30.395Z,6.03
2022-12-29T20:02:56.978Z,6.63
2022-12-29T20:05:23.587Z,5.75
2022-12-29T20:07:49.986Z,14.13
2022-12-29T20:10:16.438Z,9.35
2022-12-29T20:12:42.887Z,10.23
2022-12-29T20:15:11.219Z,11.00
2022-12-29T20:18:12.069Z,11.90
2022-12-29T20:20:24.073Z,19.07
2022-12-29T20:22:50.513Z,10.35
2022-12-29T20:25:53.554Z,11.40
2022-12-29T20:28:03.577Z,9.45
2022-12-29T20:30:30.054Z,15.45
2022-12-29T20:32:56.437Z,13.10
2022-12-29T20:35:22.925Z,14.48
2022-12-29T20:37:49.652Z,12.20
2022-12-29T20:40:16.173Z,8.55
2022-12-29T20:42:42.527Z,13.55
2022-12-29T20:45:09.742Z,13.17
2022-12-29T20:47:36.147Z,13.27
2022-12-29T20:50:02.883Z,9.27
2022-12-29T20:52:29.296Z,11.88
2022-12-29T20:54:55.723Z,12.43
2022-12-29T20:57:22.197Z,13.27
2022-12-29T20:59:48.605Z,14.82
2022-12-29T21:02:22.638Z,7.70
2022-12-29T21:07:35.815Z,9.75
2022-12-29T21:10:02.202Z,13.83
2022-12-29T21:12:28.540Z,12.10
2022-12-29T21:14:54.918Z,9.75
2022-12-29T21:17:21.252Z,10.00
2022-12-29T21:19:47.662Z,9.88
2022-12-29T21:22:14.232Z,11.27
2022-12-29T21:24:40.683Z,8.38
2022-12-29T21:27:07.051Z,10.35
2022-12-29T21:29:33.462Z,17.05
2022-12-29T21:32:06.485Z,7.80
2022-12-29T21:34:34.611Z,13.47
2022-12-29T21:37:01.377Z,10.20
2022-12-29T21:39:27.842Z,12.05
2022-12-29T21:41:59.810Z,10.45
2022-12-29T21:44:45.469Z,9.63
2022-12-29T21:47:11.986Z,14.40
2022-12-29T21:49:38.358Z,10.68
2022-12-29T21:52:04.929Z,11.63
2022-12-29T21:54:49.980Z,11.75
2022-12-29T21:57:37.238Z,14.10
2022-12-29T22:00:27.293Z,8.57
2022-12-29T22:03:22.054Z,9.27
2022-12-29T22:06:08.747Z,10.57
2022-12-29T22:08:54.082Z,10.35
2022-12-29T22:11:38.803Z,11.15
2022-12-29T22:14:06.274Z,10.20
2022-12-29T22:16:32.784Z,8.68
2022-12-29T22:18:59.504Z,7.75
2022-12-29T22:21:25.866Z,7.93
2022-12-29T22:23:52.250Z,6.63
2022-12-29T22:26:18.768Z,7.73
2022-12-29T22:28:46.223Z,4.47
2022-12-29T22:31:21.847Z,7.20
2022-12-29T22:33:48.328Z,6.68
2022-12-29T22:36:14.684Z,7.53
2022-12-29T22:38:41.008Z,7.40
2022-12-29T22:41:07.404Z,9.00
2022-12-29T22:43:33.885Z,8.93
2022-12-29T22:46:05.009Z,9.15
2022-12-29T22:48:33.163Z,10.07
2022-12-29T22:50:59.800Z,7.57
2022-12-29T22:53:26.195Z,9.00
2022-12-29T22:56:05.706Z,7.75
2022-12-29T22:58:32.057Z,11.38
2022-12-29T23:00:58.818Z,3.10
2022-12-29T23:03:25.225Z,9.23
2022-12-29T23:06:03.244Z,14.27
2022-12-29T23:08:32.878Z,11.43
2022-12-29T23:10:59.320Z,4.88
2022-12-29T23:13:25.950Z,9.45
2022-12-29T23:15:52.394Z,11.63
2022-12-29T23:18:18.861Z,9.77
2022-12-29T23:20:47.523Z,5.25
2022-12-29T23:23:14.103Z,10.32
2022-12-29T23:25:40.480Z,7.57
2022-12-29T23:28:08.698Z,5.87
2022-12-29T23:30:35.207Z,8.50
2022-12-29T23:33:01.556Z,9.70
2022-12-29T23:35:27.957Z,4.32
2022-12-29T23:37:54.402Z,11.23
2022-12-29T23:40:20.820Z,7.47
2022-12-29T23:42:47.235Z,10.60
2022-12-29T23:45:13.698Z,6.88
2022-12-29T23:47:40.114Z,11.00
2022-12-29T23:50:07.226Z,9.80
2022-12-29T23:52:33.644Z,9.40
2022-12-29T23:55:00.061Z,8.40
2022-12-29T23:57:26.439Z,7.32
2022-12-29T23:59:52.800Z,6.22
